sensor_id;sensor_type;location;lat;lon;timestamp;pressure;altitude;pressure_sealevel;temperature;humidity
22104;BME280;11218;48.886;9.426;2023-04-05T00:01:10;98574.31;;;2.35;60.27
22104;BME280;11218;48.886;9.426;2023-04-05T00:03:40;98565.72;;;2.33;61.65
22104;BME280;11218;48.886;9.426;2023-04-05T00:06:09;98572.03;;;2.31;62.10
22104;BME280;11218;48.886;9.426;2023-04-05T00:08:39;98565.44;;;2.27;62.10
22104;BME280;11218;48.886;9.426;2023-04-05T00:11:07;98564.75;;;2.19;62.88
22104;BME280;11218;48.886;9.426;2023-04-05T00:13:35;98560.88;;;2.07;63.38
22104;BME280;11218;48.886;9.426;2023-04-05T00:16:06;98564.56;;;2.06;62.83
22104;BME280;11218;48.886;9.426;2023-04-05T00:18:34;98559.88;;;2.08;63.97
22104;BME280;11218;48.886;9.426;2023-04-05T00:21:07;98554.84;;;1.98;64.47
22104;BME280;11218;48.886;9.426;2023-04-05T00:23:35;98555.03;;;1.96;64.59
22104;BME280;11218;48.886;9.426;2023-04-05T00:26:05;98556.22;;;1.94;64.99
22104;BME280;11218;48.886;9.426;2023-04-05T00:28:34;98549.81;;;1.88;65.20
22104;BME280;11218;48.886;9.426;2023-04-05T00:31:06;98540.84;;;1.89;64.86
22104;BME280;11218;48.886;9.426;2023-04-05T00:33:34;98541.47;;;1.91;65.38
22104;BME280;11218;48.886;9.426;2023-04-05T00:36:10;98535.34;;;1.91;65.20
22104;BME280;11218;48.886;9.426;2023-04-05T00:38:39;98532.22;;;1.87;65.08
22104;BME280;11218;48.886;9.426;2023-04-05T00:41:08;98531.22;;;1.88;65.40
22104;BME280;11218;48.886;9.426;2023-04-05T00:43:36;98529.94;;;1.84;66.05
22104;BME280;11218;48.886;9.426;2023-04-05T00:46:07;98526.81;;;1.81;65.18
22104;BME280;11218;48.886;9.426;2023-04-05T00:48:37;98534.50;;;1.76;65.68
22104;BME280;11218;48.886;9.426;2023-04-05T00:51:06;98535.31;;;1.76;66.02
22104;BME280;11218;48.886;9.426;2023-04-05T00:53:39;98525.19;;;1.80;65.70
22104;BME280;11218;48.886;9.426;2023-04-05T00:56:09;98519.88;;;1.80;65.94
22104;BME280;11218;48.886;9.426;2023-04-05T00:58:39;98509.91;;;1.82;66.20
22104;BME280;11218;48.886;9.426;2023-04-05T01:01:15;98517.31;;;1.86;65.50
22104;BME280;11218;48.886;9.426;2023-04-05T01:03:48;98508.16;;;1.89;65.49
22104;BME280;11218;48.886;9.426;2023-04-05T01:06:49;98508.63;;;1.92;64.70
22104;BME280;11218;48.886;9.426;2023-04-05T01:09:32;98504.59;;;1.96;65.11
22104;BME280;11218;48.886;9.426;2023-04-05T01:12:05;98500.66;;;1.92;65.03
22104;BME280;11218;48.886;9.426;2023-04-05T01:14:46;98508.34;;;2.02;64.82
22104;BME280;11218;48.886;9.426;2023-04-05T01:17:20;98498.28;;;1.97;64.77
22104;BME280;11218;48.886;9.426;2023-04-05T01:19:54;98505.41;;;1.97;65.00
22104;BME280;11218;48.886;9.426;2023-04-05T01:25:48;98491.50;;;1.95;64.83
22104;BME280;11218;48.886;9.426;2023-04-05T01:28:54;98487.75;;;1.89;64.63
22104;BME280;11218;48.886;9.426;2023-04-05T01:31:31;98483.00;;;1.85;64.35
22104;BME280;11218;48.886;9.426;2023-04-05T01:34:13;98478.88;;;1.82;64.73
22104;BME280;11218;48.886;9.426;2023-04-05T01:36:49;98475.75;;;1.79;64.14
22104;BME280;11218;48.886;9.426;2023-04-05T01:39:23;98473.66;;;1.74;64.38
22104;BME280;11218;48.886;9.426;2023-04-05T01:41:57;98478.22;;;1.80;64.36
22104;BME280;11218;48.886;9.426;2023-04-05T01:44:26;98468.81;;;1.78;64.39
22104;BME280;11218;48.886;9.426;2023-04-05T01:47:00;98473.47;;;1.76;63.77
22104;BME280;11218;48.886;9.426;2023-04-05T01:49:30;98474.84;;;1.72;64.11
22104;BME280;11218;48.886;9.426;2023-04-05T01:52:02;98480.25;;;1.63;63.99
22104;BME280;11218;48.886;9.426;2023-04-05T01:54:33;98486.56;;;1.62;64.42
22104;BME280;11218;48.886;9.426;2023-04-05T01:57:05;98483.53;;;1.65;65.68
22104;BME280;11218;48.886;9.426;2023-04-05T01:59:36;98480.50;;;1.54;65.31
22104;BME280;11218;48.886;9.426;2023-04-05T02:02:10;98473.72;;;1.51;65.60
22104;BME280;11218;48.886;9.426;2023-04-05T02:04:40;98479.69;;;1.53;65.21
22104;BME280;11218;48.886;9.426;2023-04-05T02:07:10;98471.53;;;1.55;65.82
22104;BME280;11218;48.886;9.426;2023-04-05T02:09:41;98475.00;;;1.55;65.26
22104;BME280;11218;48.886;9.426;2023-04-05T02:12:11;98473.00;;;1.57;64.93
22104;BME280;11218;48.886;9.426;2023-04-05T02:14:40;98468.88;;;1.55;64.71
22104;BME280;11218;48.886;9.426;2023-04-05T02:17:10;98461.28;;;1.52;64.51
22104;BME280;11218;48.886;9.426;2023-04-05T02:19:38;98472.47;;;1.47;64.40
22104;BME280;11218;48.886;9.426;2023-04-05T02:22:07;98466.34;;;1.47;65.15
22104;BME280;11218;48.886;9.426;2023-04-05T02:24:35;98461.03;;;1.47;65.18
22104;BME280;11218;48.886;9.426;2023-04-05T02:27:04;98465.78;;;1.51;65.61
22104;BME280;11218;48.886;9.426;2023-04-05T02:29:33;98464.31;;;1.49;65.03
22104;BME280;11218;48.886;9.426;2023-04-05T02:32:01;98464.69;;;1.46;64.94
22104;BME280;11218;48.886;9.426;2023-04-05T02:34:31;98459.66;;;1.36;64.16
22104;BME280;11218;48.886;9.426;2023-04-05T02:37:01;98463.97;;;1.37;65.30
22104;BME280;11218;48.886;9.426;2023-04-05T02:39:29;98450.78;;;1.29;64.81
22104;BME280;11218;48.886;9.426;2023-04-05T02:41:58;98447.19;;;1.22;65.05
22104;BME280;11218;48.886;9.426;2023-04-05T02:44:28;98457.63;;;1.23;64.99
22104;BME280;11218;48.886;9.426;2023-04-05T02:46:56;98452.41;;;1.15;64.90
22104;BME280;11218;48.886;9.426;2023-04-05T02:49:24;98457.94;;;1.06;65.09
22104;BME280;11218;48.886;9.426;2023-04-05T02:51:54;98451.81;;;1.05;65.35
22104;BME280;11218;48.886;9.426;2023-04-05T02:54:22;98454.72;;;0.95;64.18
22104;BME280;11218;48.886;9.426;2023-04-05T02:56:50;98451.59;;;0.92;65.80
22104;BME280;11218;48.886;9.426;2023-04-05T02:59:20;98458.19;;;0.96;65.05
22104;BME280;11218;48.886;9.426;2023-04-05T03:01:48;98449.94;;;0.91;65.91
22104;BME280;11218;48.886;9.426;2023-04-05T03:04:16;98453.41;;;0.91;65.33
22104;BME280;11218;48.886;9.426;2023-04-05T03:06:45;98453.78;;;0.88;65.70
22104;BME280;11218;48.886;9.426;2023-04-05T03:09:16;98440.25;;;0.83;66.49
22104;BME280;11218;48.886;9.426;2023-04-05T03:11:44;98434.28;;;0.81;66.46
22104;BME280;11218;48.886;9.426;2023-04-05T03:14:13;98440.25;;;0.83;65.63
22104;BME280;11218;48.886;9.426;2023-04-05T03:16:41;98453.13;;;0.86;65.95
22104;BME280;11218;48.886;9.426;2023-04-05T03:19:09;98455.38;;;0.75;66.30
22104;BME280;11218;48.886;9.426;2023-04-05T03:21:37;98447.25;;;0.76;66.66
22104;BME280;11218;48.886;9.426;2023-04-05T03:24:07;98447.06;;;0.78;67.45
22104;BME280;11218;48.886;9.426;2023-04-05T03:26:40;98442.41;;;0.80;67.03
22104;BME280;11218;48.886;9.426;2023-04-05T03:29:11;98438.78;;;0.81;67.07
22104;BME280;11218;48.886;9.426;2023-04-05T03:31:41;98440.41;;;0.82;67.09
22104;BME280;11218;48.886;9.426;2023-04-05T03:34:13;98444.06;;;0.81;67.78
22104;BME280;11218;48.886;9.426;2023-04-05T03:36:45;98435.66;;;0.77;67.29
22104;BME280;11218;48.886;9.426;2023-04-05T03:39:17;98439.53;;;0.89;66.49
22104;BME280;11218;48.886;9.426;2023-04-05T03:41:49;98435.59;;;0.85;66.85
22104;BME280;11218;48.886;9.426;2023-04-05T03:44:19;98434.75;;;0.85;66.81
22104;BME280;11218;48.886;9.426;2023-04-05T03:46:47;98433.19;;;0.76;66.33
22104;BME280;11218;48.886;9.426;2023-04-05T03:49:15;98439.31;;;0.76;67.75
22104;BME280;11218;48.886;9.426;2023-04-05T03:51:45;98443.78;;;0.76;66.99
22104;BME280;11218;48.886;9.426;2023-04-05T03:54:13;98442.25;;;0.81;66.71
22104;BME280;11218;48.886;9.426;2023-04-05T03:56:42;98428.88;;;0.75;67.18
22104;BME280;11218;48.886;9.426;2023-04-05T03:59:11;98442.59;;;0.78;67.54
22104;BME280;11218;48.886;9.426;2023-04-05T04:01:40;98445.06;;;0.80;67.47
22104;BME280;11218;48.886;9.426;2023-04-05T04:04:08;98442.25;;;0.81;67.46
22104;BME280;11218;48.886;9.426;2023-04-05T04:06:37;98445.88;;;0.80;67.48
22104;BME280;11218;48.886;9.426;2023-04-05T04:09:05;98446.53;;;0.82;66.58
22104;BME280;11218;48.886;9.426;2023-04-05T04:11:33;98438.41;;;0.84;67.86
22104;BME280;11218;48.886;9.426;2023-04-05T04:14:01;98446.19;;;0.85;67.53
22104;BME280;11218;48.886;9.426;2023-04-05T04:16:31;98448.38;;;0.82;67.64
22104;BME280;11218;48.886;9.426;2023-04-05T04:18:59;98446.25;;;0.77;66.17
22104;BME280;11218;48.886;9.426;2023-04-05T04:21:27;98444.97;;;0.73;66.45
22104;BME280;11218;48.886;9.426;2023-04-05T04:23:58;98447.16;;;0.70;66.32
22104;BME280;11218;48.886;9.426;2023-04-05T04:26:26;98447.69;;;0.65;65.93
22104;BME280;11218;48.886;9.426;2023-04-05T04:28:55;98446.41;;;0.61;66.82
22104;BME280;11218;48.886;9.426;2023-04-05T04:31:23;98455.34;;;0.60;67.01
22104;BME280;11218;48.886;9.426;2023-04-05T04:33:53;98452.03;;;0.58;66.08
22104;BME280;11218;48.886;9.426;2023-04-05T04:36:21;98457.81;;;0.61;66.69
22104;BME280;11218;48.886;9.426;2023-04-05T04:39:00;98456.00;;;0.62;67.72
22104;BME280;11218;48.886;9.426;2023-04-05T04:41:30;98446.22;;;0.62;67.13
22104;BME280;11218;48.886;9.426;2023-04-05T04:44:02;98448.22;;;0.60;67.76
22104;BME280;11218;48.886;9.426;2023-04-05T04:46:32;98450.09;;;0.52;67.06
22104;BME280;11218;48.886;9.426;2023-04-05T04:49:09;98452.16;;;0.42;67.06
22104;BME280;11218;48.886;9.426;2023-04-05T04:51:38;98452.50;;;0.39;66.88
22104;BME280;11218;48.886;9.426;2023-04-05T04:54:08;98450.31;;;0.42;68.06
22104;BME280;11218;48.886;9.426;2023-04-05T04:56:36;98449.97;;;0.45;67.68
22104;BME280;11218;48.886;9.426;2023-04-05T04:59:04;98447.50;;;0.44;67.25
22104;BME280;11218;48.886;9.426;2023-04-05T05:01:33;98447.53;;;0.36;67.86
22104;BME280;11218;48.886;9.426;2023-04-05T05:04:03;98447.94;;;0.24;67.73
22104;BME280;11218;48.886;9.426;2023-04-05T05:06:33;98442.13;;;0.29;67.13
22104;BME280;11218;48.886;9.426;2023-04-05T05:09:01;98448.53;;;0.35;68.42
22104;BME280;11218;48.886;9.426;2023-04-05T05:11:30;98450.38;;;0.34;68.21
22104;BME280;11218;48.886;9.426;2023-04-05T05:13:59;98450.19;;;0.36;67.98
22104;BME280;11218;48.886;9.426;2023-04-05T05:16:27;98455.13;;;0.39;67.81
22104;BME280;11218;48.886;9.426;2023-04-05T05:18:55;98455.97;;;0.39;67.69
22104;BME280;11218;48.886;9.426;2023-04-05T05:21:24;98450.31;;;0.42;68.07
22104;BME280;11218;48.886;9.426;2023-04-05T05:23:53;98458.09;;;0.44;67.73
22104;BME280;11218;48.886;9.426;2023-04-05T05:26:21;98457.75;;;0.47;67.35
22104;BME280;11218;48.886;9.426;2023-04-05T05:28:49;98459.38;;;0.48;67.60
22104;BME280;11218;48.886;9.426;2023-04-05T05:31:17;98457.56;;;0.48;67.76
22104;BME280;11218;48.886;9.426;2023-04-05T05:33:46;98444.97;;;0.50;67.71
22104;BME280;11218;48.886;9.426;2023-04-05T05:36:15;98455.22;;;0.53;67.57
22104;BME280;11218;48.886;9.426;2023-04-05T05:38:45;98455.03;;;0.55;67.51
22104;BME280;11218;48.886;9.426;2023-04-05T05:41:16;98453.03;;;0.57;67.68
22104;BME280;11218;48.886;9.426;2023-04-05T05:43:44;98454.69;;;0.58;67.61
22104;BME280;11218;48.886;9.426;2023-04-05T05:46:12;98457.16;;;0.59;67.14
22104;BME280;11218;48.886;9.426;2023-04-05T05:48:40;98457.00;;;0.61;68.54
22104;BME280;11218;48.886;9.426;2023-04-05T05:51:09;98460.28;;;0.63;67.18
22104;BME280;11218;48.886;9.426;2023-04-05T05:53:43;98448.91;;;0.54;67.19
22104;BME280;11218;48.886;9.426;2023-04-05T05:56:17;98441.44;;;0.58;67.66
22104;BME280;11218;48.886;9.426;2023-04-05T05:58:47;98459.81;;;0.59;67.92
22104;BME280;11218;48.886;9.426;2023-04-05T06:01:19;98456.81;;;0.62;67.86
22104;BME280;11218;48.886;9.426;2023-04-05T06:03:55;98454.34;;;0.61;68.65
22104;BME280;11218;48.886;9.426;2023-04-05T06:06:26;98462.09;;;0.62;67.74
22104;BME280;11218;48.886;9.426;2023-04-05T06:09:00;98459.28;;;0.64;67.76
22104;BME280;11218;48.886;9.426;2023-04-05T06:11:33;98464.88;;;0.69;67.64
22104;BME280;11218;48.886;9.426;2023-04-05T06:14:16;98457.75;;;0.70;68.76
22104;BME280;11218;48.886;9.426;2023-04-05T06:16:47;98456.56;;;0.72;67.38
22104;BME280;11218;48.886;9.426;2023-04-05T06:19:20;98458.03;;;0.75;67.28
22104;BME280;11218;48.886;9.426;2023-04-05T06:21:50;98458.22;;;0.73;67.07
22104;BME280;11218;48.886;9.426;2023-04-05T06:24:23;98466.72;;;0.83;67.82
22104;BME280;11218;48.886;9.426;2023-04-05T06:27:01;98461.44;;;0.83;67.37
22104;BME280;11218;48.886;9.426;2023-04-05T06:29:34;98467.31;;;0.93;67.92
22104;BME280;11218;48.886;9.426;2023-04-05T06:32:04;98464.50;;;0.95;68.41
22104;BME280;11218;48.886;9.426;2023-04-05T06:34:35;98467.06;;;1.03;68.53
22104;BME280;11218;48.886;9.426;2023-04-05T06:37:07;98455.41;;;1.12;67.52
22104;BME280;11218;48.886;9.426;2023-04-05T06:39:41;98460.19;;;1.31;67.04
22104;BME280;11218;48.886;9.426;2023-04-05T06:42:14;98459.00;;;1.49;66.45
22104;BME280;11218;48.886;9.426;2023-04-05T06:44:47;98451.16;;;1.70;65.91
22104;BME280;11218;48.886;9.426;2023-04-05T06:47:18;98460.22;;;1.90;65.11
22104;BME280;11218;48.886;9.426;2023-04-05T06:49:53;98463.13;;;2.10;65.27
22104;BME280;11218;48.886;9.426;2023-04-05T06:52:24;98454.06;;;2.41;63.20
22104;BME280;11218;48.886;9.426;2023-04-05T06:54:54;98452.19;;;2.56;63.15
22104;BME280;11218;48.886;9.426;2023-04-05T06:57:26;98460.50;;;2.89;63.47
22104;BME280;11218;48.886;9.426;2023-04-05T06:59:58;98459.50;;;3.18;62.46
22104;BME280;11218;48.886;9.426;2023-04-05T07:02:30;98458.69;;;3.45;61.07
22104;BME280;11218;48.886;9.426;2023-04-05T07:05:02;98458.94;;;3.50;60.06
22104;BME280;11218;48.886;9.426;2023-04-05T07:07:31;98460.81;;;3.56;59.50
22104;BME280;11218;48.886;9.426;2023-04-05T07:10:00;98451.66;;;3.66;59.09
22104;BME280;11218;48.886;9.426;2023-04-05T07:12:31;98466.09;;;3.84;58.20
22104;BME280;11218;48.886;9.426;2023-04-05T07:14:59;98460.00;;;3.97;57.94
22104;BME280;11218;48.886;9.426;2023-04-05T07:17:27;98468.03;;;4.04;57.17
22104;BME280;11218;48.886;9.426;2023-04-05T07:19:56;98471.63;;;4.24;56.74
22104;BME280;11218;48.886;9.426;2023-04-05T07:22:24;98460.63;;;4.40;57.09
22104;BME280;11218;48.886;9.426;2023-04-05T07:24:53;98457.97;;;4.60;57.08
22104;BME280;11218;48.886;9.426;2023-04-05T07:27:21;98460.06;;;4.71;56.05
22104;BME280;11218;48.886;9.426;2023-04-05T07:29:51;98468.09;;;4.84;56.48
22104;BME280;11218;48.886;9.426;2023-04-05T07:32:19;98462.56;;;4.99;55.71
22104;BME280;11218;48.886;9.426;2023-04-05T07:34:47;98467.09;;;5.05;55.28
22104;BME280;11218;48.886;9.426;2023-04-05T07:37:16;98457.03;;;5.20;54.38
22104;BME280;11218;48.886;9.426;2023-04-05T07:39:44;98454.56;;;5.25;53.89
22104;BME280;11218;48.886;9.426;2023-04-05T07:42:12;98459.28;;;5.30;54.25
22104;BME280;11218;48.886;9.426;2023-04-05T07:44:40;98452.72;;;5.39;55.02
22104;BME280;11218;48.886;9.426;2023-04-05T07:47:09;98450.84;;;5.59;54.06
22104;BME280;11218;48.886;9.426;2023-04-05T07:49:37;98452.06;;;5.77;53.54
22104;BME280;11218;48.886;9.426;2023-04-05T07:52:07;98448.16;;;5.92;53.46
22104;BME280;11218;48.886;9.426;2023-04-05T07:54:39;98446.88;;;6.02;52.47
22104;BME280;11218;48.886;9.426;2023-04-05T07:57:16;98453.56;;;6.24;53.35
22104;BME280;11218;48.886;9.426;2023-04-05T07:59:48;98457.81;;;6.45;52.53
22104;BME280;11218;48.886;9.426;2023-04-05T08:02:22;98458.03;;;6.75;51.81
22104;BME280;11218;48.886;9.426;2023-04-05T08:04:54;98459.34;;;6.97;51.27
22104;BME280;11218;48.886;9.426;2023-04-05T08:07:25;98452.88;;;7.11;49.44
22104;BME280;11218;48.886;9.426;2023-04-05T08:09:55;98449.41;;;7.04;49.50
22104;BME280;11218;48.886;9.426;2023-04-05T08:12:29;98450.94;;;6.93;49.32
22104;BME280;11218;48.886;9.426;2023-04-05T08:15:00;98455.75;;;7.10;49.45
22104;BME280;11218;48.886;9.426;2023-04-05T08:17:32;98441.72;;;7.14;49.30
22104;BME280;11218;48.886;9.426;2023-04-05T08:20:04;98455.88;;;7.21;50.34
22104;BME280;11218;48.886;9.426;2023-04-05T08:22:35;98446.25;;;7.14;48.31
22104;BME280;11218;48.886;9.426;2023-04-05T08:25:05;98448.53;;;7.10;48.71
22104;BME280;11218;48.886;9.426;2023-04-05T08:27:35;98440.78;;;7.02;47.26
22104;BME280;11218;48.886;9.426;2023-04-05T08:30:07;98441.28;;;7.42;46.56
22104;BME280;11218;48.886;9.426;2023-04-05T08:32:40;98435.88;;;7.67;43.59
22104;BME280;11218;48.886;9.426;2023-04-05T08:35:11;98439.50;;;7.98;43.67
22104;BME280;11218;48.886;9.426;2023-04-05T08:37:43;98446.50;;;8.17;42.92
22104;BME280;11218;48.886;9.426;2023-04-05T08:40:16;98443.88;;;8.47;42.48
22104;BME280;11218;48.886;9.426;2023-04-05T08:42:52;98441.22;;;8.59;41.39
22104;BME280;11218;48.886;9.426;2023-04-05T08:45:25;98438.38;;;8.72;40.01
22104;BME280;11218;48.886;9.426;2023-04-05T08:47:57;98434.72;;;8.66;41.41
22104;BME280;11218;48.886;9.426;2023-04-05T08:50:27;98433.03;;;8.53;41.79
22104;BME280;11218;48.886;9.426;2023-04-05T08:52:57;98436.53;;;8.54;43.01
22104;BME280;11218;48.886;9.426;2023-04-05T08:55:27;98444.56;;;8.72;42.05
22104;BME280;11218;48.886;9.426;2023-04-05T08:58:00;98428.94;;;8.81;41.04
22104;BME280;11218;48.886;9.426;2023-04-05T09:00:32;98435.38;;;8.80;41.04
22104;BME280;11218;48.886;9.426;2023-04-05T09:03:05;98434.91;;;8.83;40.61
22104;BME280;11218;48.886;9.426;2023-04-05T09:05:38;98438.16;;;8.73;40.08
22104;BME280;11218;48.886;9.426;2023-04-05T09:08:08;98434.22;;;8.57;40.16
22104;BME280;11218;48.886;9.426;2023-04-05T09:10:39;98439.81;;;8.56;40.77
22104;BME280;11218;48.886;9.426;2023-04-05T09:13:11;98442.69;;;8.73;40.09
22104;BME280;11218;48.886;9.426;2023-04-05T09:15:43;98435.63;;;8.90;40.18
22104;BME280;11218;48.886;9.426;2023-04-05T09:18:15;98435.28;;;8.98;39.84
22104;BME280;11218;48.886;9.426;2023-04-05T09:21:02;98427.88;;;9.23;39.08
22104;BME280;11218;48.886;9.426;2023-04-05T09:23:34;98443.47;;;9.03;39.43
22104;BME280;11218;48.886;9.426;2023-04-05T09:26:17;98447.75;;;8.93;38.73
22104;BME280;11218;48.886;9.426;2023-04-05T09:28:49;98443.16;;;8.70;39.08
22104;BME280;11218;48.886;9.426;2023-04-05T09:31:30;98435.78;;;8.65;39.90
22104;BME280;11218;48.886;9.426;2023-04-05T09:34:03;98439.00;;;8.55;39.88
22104;BME280;11218;48.886;9.426;2023-04-05T09:36:34;98437.72;;;8.88;39.45
22104;BME280;11218;48.886;9.426;2023-04-05T09:39:06;98428.78;;;8.64;40.29
22104;BME280;11218;48.886;9.426;2023-04-05T09:41:37;98429.47;;;8.60;39.07
22104;BME280;11218;48.886;9.426;2023-04-05T09:44:08;98436.09;;;8.57;40.56
22104;BME280;11218;48.886;9.426;2023-04-05T09:46:38;98436.81;;;8.64;38.99
22104;BME280;11218;48.886;9.426;2023-04-05T09:49:11;98429.97;;;8.68;39.38
22104;BME280;11218;48.886;9.426;2023-04-05T09:51:42;98421.09;;;8.68;38.60
22104;BME280;11218;48.886;9.426;2023-04-05T09:54:15;98439.91;;;8.31;39.14
22104;BME280;11218;48.886;9.426;2023-04-05T09:56:53;98426.00;;;8.41;39.38
22104;BME280;11218;48.886;9.426;2023-04-05T09:59:25;98434.72;;;8.66;38.55
22104;BME280;11218;48.886;9.426;2023-04-05T10:02:02;98420.16;;;8.44;38.95
22104;BME280;11218;48.886;9.426;2023-04-05T10:04:40;98424.94;;;8.42;39.40
22104;BME280;11218;48.886;9.426;2023-04-05T10:07:13;98417.13;;;8.70;39.39
22104;BME280;11218;48.886;9.426;2023-04-05T10:09:48;98420.44;;;8.84;38.18
22104;BME280;11218;48.886;9.426;2023-04-05T10:12:25;98417.44;;;9.04;38.27
22104;BME280;11218;48.886;9.426;2023-04-05T10:14:56;98411.00;;;9.05;38.34
22104;BME280;11218;48.886;9.426;2023-04-05T10:17:33;98407.22;;;9.36;39.89
22104;BME280;11218;48.886;9.426;2023-04-05T10:20:14;98396.13;;;9.55;36.71
22104;BME280;11218;48.886;9.426;2023-04-05T10:23:00;98396.00;;;9.50;37.06
22104;BME280;11218;48.886;9.426;2023-04-05T10:25:39;98397.53;;;9.46;37.22
22104;BME280;11218;48.886;9.426;2023-04-05T10:28:17;98392.97;;;9.47;37.77
22104;BME280;11218;48.886;9.426;2023-04-05T10:30:50;98397.88;;;9.62;37.57
22104;BME280;11218;48.886;9.426;2023-04-05T10:33:20;98390.47;;;9.69;36.61
22104;BME280;11218;48.886;9.426;2023-04-05T10:35:58;98388.53;;;9.64;37.79
22104;BME280;11218;48.886;9.426;2023-04-05T10:38:29;98383.63;;;9.49;37.00
22104;BME280;11218;48.886;9.426;2023-04-05T10:41:11;98395.19;;;9.38;37.57
22104;BME280;11218;48.886;9.426;2023-04-05T10:43:41;98394.72;;;9.41;37.46
22104;BME280;11218;48.886;9.426;2023-04-05T10:46:19;98387.94;;;9.39;37.52
22104;BME280;11218;48.886;9.426;2023-04-05T10:48:56;98389.19;;;9.13;36.74
22104;BME280;11218;48.886;9.426;2023-04-05T10:51:27;98390.94;;;9.07;37.75
22104;BME280;11218;48.886;9.426;2023-04-05T10:53:57;98388.53;;;9.41;37.13
22104;BME280;11218;48.886;9.426;2023-04-05T10:56:25;98387.78;;;9.69;37.77
22104;BME280;11218;48.886;9.426;2023-04-05T10:58:54;98382.28;;;9.87;36.47
22104;BME280;11218;48.886;9.426;2023-04-05T11:01:23;98385.53;;;9.89;37.07
22104;BME280;11218;48.886;9.426;2023-04-05T11:03:52;98378.13;;;10.19;37.33
22104;BME280;11218;48.886;9.426;2023-04-05T11:06:23;98387.72;;;10.44;35.68
22104;BME280;11218;48.886;9.426;2023-04-05T11:08:58;98371.94;;;10.47;36.08
22104;BME280;11218;48.886;9.426;2023-04-05T11:11:26;98378.97;;;10.65;35.65
22104;BME280;11218;48.886;9.426;2023-04-05T11:13:57;98370.38;;;10.97;34.45
22104;BME280;11218;48.886;9.426;2023-04-05T11:16:38;98367.34;;;10.76;34.88
22104;BME280;11218;48.886;9.426;2023-04-05T11:19:06;98362.78;;;10.77;33.86
22104;BME280;11218;48.886;9.426;2023-04-05T11:21:36;98351.44;;;10.46;33.74
22104;BME280;11218;48.886;9.426;2023-04-05T11:24:08;98352.00;;;10.32;34.83
22104;BME280;11218;48.886;9.426;2023-04-05T11:26:54;98358.06;;;10.39;35.90
22104;BME280;11218;48.886;9.426;2023-04-05T11:29:45;98349.69;;;10.69;35.68
22104;BME280;11218;48.886;9.426;2023-04-05T11:32:16;98345.97;;;11.03;34.21
22104;BME280;11218;48.886;9.426;2023-04-05T11:34:57;98342.69;;;11.18;35.04
22104;BME280;11218;48.886;9.426;2023-04-05T11:40:34;98338.78;;;11.81;34.74
22104;BME280;11218;48.886;9.426;2023-04-05T11:43:03;98338.94;;;11.96;33.64
22104;BME280;11218;48.886;9.426;2023-04-05T11:45:34;98341.88;;;12.16;33.68
22104;BME280;11218;48.886;9.426;2023-04-05T11:48:07;98340.69;;;12.29;33.89
22104;BME280;11218;48.886;9.426;2023-04-05T11:50:36;98335.94;;;12.41;32.85
22104;BME280;11218;48.886;9.426;2023-04-05T11:53:09;98338.03;;;12.34;32.61
22104;BME280;11218;48.886;9.426;2023-04-05T11:55:41;98341.06;;;12.16;31.63
22104;BME280;11218;48.886;9.426;2023-04-05T11:58:14;98337.25;;;11.51;32.76
22104;BME280;11218;48.886;9.426;2023-04-05T12:00:44;98333.69;;;11.46;33.25
22104;BME280;11218;48.886;9.426;2023-04-05T12:03:13;98330.09;;;11.40;32.81
22104;BME280;11218;48.886;9.426;2023-04-05T12:05:48;98332.59;;;11.08;33.25
22104;BME280;11218;48.886;9.426;2023-04-05T12:08:17;98336.84;;;10.88;33.42
22104;BME280;11218;48.886;9.426;2023-04-05T12:10:54;98322.06;;;10.90;34.10
22104;BME280;11218;48.886;9.426;2023-04-05T12:13:26;98320.06;;;11.19;34.03
22104;BME280;11218;48.886;9.426;2023-04-05T12:15:57;98323.06;;;11.39;33.90
22104;BME280;11218;48.886;9.426;2023-04-05T12:18:27;98319.78;;;11.54;34.00
22104;BME280;11218;48.886;9.426;2023-04-05T12:20:56;98308.69;;;11.72;34.06
22104;BME280;11218;48.886;9.426;2023-04-05T12:23:24;98314.75;;;11.79;33.71
22104;BME280;11218;48.886;9.426;2023-04-05T12:25:55;98314.09;;;11.72;32.78
22104;BME280;11218;48.886;9.426;2023-04-05T12:28:24;98312.34;;;11.44;33.07
22104;BME280;11218;48.886;9.426;2023-04-05T12:30:54;98302.06;;;11.41;33.52
22104;BME280;11218;48.886;9.426;2023-04-05T12:33:27;98306.81;;;11.34;33.01
22104;BME280;11218;48.886;9.426;2023-04-05T12:35:56;98304.34;;;11.49;32.84
22104;BME280;11218;48.886;9.426;2023-04-05T12:38:24;98308.28;;;11.42;33.28
22104;BME280;11218;48.886;9.426;2023-04-05T12:40:58;98300.78;;;11.27;33.18
22104;BME280;11218;48.886;9.426;2023-04-05T12:43:37;98301.25;;;11.41;32.51
22104;BME280;11218;48.886;9.426;2023-04-05T12:46:08;98287.91;;;11.51;32.96
22104;BME280;11218;48.886;9.426;2023-04-05T12:48:36;98293.69;;;11.60;31.72
22104;BME280;11218;48.886;9.426;2023-04-05T12:51:13;98289.97;;;11.44;32.10
22104;BME280;11218;48.886;9.426;2023-04-05T12:53:45;98287.06;;;11.29;33.35
22104;BME280;11218;48.886;9.426;2023-04-05T12:56:15;98278.13;;;11.45;33.16
22104;BME280;11218;48.886;9.426;2023-04-05T12:58:48;98276.06;;;11.74;33.67
22104;BME280;11218;48.886;9.426;2023-04-05T13:01:17;98274.44;;;11.95;31.38
22104;BME280;11218;48.886;9.426;2023-04-05T13:03:46;98269.28;;;11.88;32.56
22104;BME280;11218;48.886;9.426;2023-04-05T13:06:15;98270.34;;;11.87;31.46
22104;BME280;11218;48.886;9.426;2023-04-05T13:08:43;98267.78;;;12.02;32.30
22104;BME280;11218;48.886;9.426;2023-04-05T13:11:11;98262.81;;;12.16;32.87
22104;BME280;11218;48.886;9.426;2023-04-05T13:13:41;98256.06;;;12.45;33.10
22104;BME280;11218;48.886;9.426;2023-04-05T13:16:09;98263.47;;;12.55;32.92
22104;BME280;11218;48.886;9.426;2023-04-05T13:18:37;98256.47;;;12.59;30.73
22104;BME280;11218;48.886;9.426;2023-04-05T13:21:05;98258.88;;;12.29;31.17
22104;BME280;11218;48.886;9.426;2023-04-05T13:23:36;98259.00;;;11.90;32.95
22104;BME280;11218;48.886;9.426;2023-04-05T13:26:05;98262.63;;;12.01;32.61
22104;BME280;11218;48.886;9.426;2023-04-05T13:28:33;98253.16;;;11.98;31.59
22104;BME280;11218;48.886;9.426;2023-04-05T13:31:04;98251.34;;;11.77;31.52
22104;BME280;11218;48.886;9.426;2023-04-05T13:33:34;98250.38;;;11.88;31.89
22104;BME280;11218;48.886;9.426;2023-04-05T13:36:02;98249.28;;;11.89;31.55
22104;BME280;11218;48.886;9.426;2023-04-05T13:38:30;98247.88;;;12.08;33.26